Preview of NWS' New Version of Forecast
This preview is not operational and should not be used for support decisions.

Terminal Aerodrome Forecast (TAF)

Issued by National Weather Service (NWS)

                            
000
FTUS42 KMFL 152342
TAFMIA
TAF
KMIA 152342Z 1600/1706 10009KT P6SM SCT025
     FM161500 10015KT P6SM SCT025
     FM170000 09011KT P6SM SCT025=